Time;durP1;ratioP1;P1;durP2;ratioP2;P2;SDS_P1;SDS_P2;PMS_P1;PMS_P2;Temp;Humidity;BMP_temperature;BMP_pressure;BME280_temperature;BME280_humidity;BME280_pressure;Samples;Min_cycle;Max_cycle;Signal;HPM_P1;HPM_P2
2023/09/08 00:06:04;;;;;;;6.20;4.20;;;;;;;17.52;100.00;97947.12;18569549;32;20082;-56
2023/09/08 00:16:07;;;;;;;5.72;4.28;;;;;;;17.46;100.00;97935.50;18568760;31;20044;-56
2023/09/08 00:26:10;;;;;;;5.60;3.90;;;;;;;17.39;100.00;97940.56;18568547;32;20048;-55
2023/09/08 00:36:12;;;;;;;6.30;3.92;;;;;;;17.25;100.00;97935.97;18567630;32;20408;-57
2023/09/08 00:46:15;;;;;;;8.55;3.78;;;;;;;17.13;100.00;97924.75;18567356;32;20401;-56
2023/09/08 00:56:17;;;;;;;4.87;4.33;;;;;;;17.04;100.00;97926.59;18539611;32;20376;-56
2023/09/08 01:06:21;;;;;;;8.38;4.37;;;;;;;17.00;100.00;97923.66;18565996;32;20086;-56
2023/09/08 01:16:24;;;;;;;5.10;4.25;;;;;;;16.94;100.00;97931.16;18550904;32;20060;-56
2023/09/08 01:26:33;;;;;;;5.95;4.20;;;;;;;16.85;100.00;97929.41;18550564;32;20101;-55
2023/09/08 01:36:36;;;;;;;7.47;4.87;;;;;;;16.81;100.00;97922.94;18548620;32;20056;-56
2023/09/08 01:46:39;;;;;;;6.87;4.85;;;;;;;16.78;100.00;97927.09;18563521;32;20060;-56
2023/09/08 01:56:41;;;;;;;5.53;4.30;;;;;;;16.73;100.00;97932.66;18548454;32;20462;-56
2023/09/08 02:06:43;;;;;;;6.80;4.65;;;;;;;16.64;100.00;97921.63;18561781;32;20124;-55
2023/09/08 02:16:46;;;;;;;6.90;4.75;;;;;;;16.57;100.00;97921.25;18534952;32;20048;-56
2023/09/08 02:26:49;;;;;;;5.28;4.62;;;;;;;16.52;100.00;97921.34;18561336;32;20083;-55
2023/09/08 02:36:51;;;;;;;6.87;5.03;;;;;;;16.44;100.00;97920.09;18560735;32;20152;-56
2023/09/08 02:46:54;;;;;;;6.03;4.03;;;;;;;16.39;100.00;97922.94;18560656;32;20105;-56
2023/09/08 02:56:56;;;;;;;4.65;4.15;;;;;;;16.33;100.00;97924.16;18546245;32;20104;-56
2023/09/08 03:06:58;;;;;;;5.72;4.32;;;;;;;16.26;100.00;97914.44;18559861;32;20048;-56
2023/09/08 03:17:00;;;;;;;5.70;4.50;;;;;;;16.23;100.00;97917.75;18559729;32;20052;-55
2023/09/08 03:27:03;;;;;;;6.07;4.43;;;;;;;16.19;100.00;97929.59;18571398;32;20087;-56
2023/09/08 03:37:06;;;;;;;4.70;4.30;;;;;;;16.25;100.00;97922.91;18570976;32;20063;-56
2023/09/08 03:47:08;;;;;;;7.22;4.37;;;;;;;16.29;100.00;97912.22;18571115;32;20097;-56
2023/09/08 03:57:11;;;;;;;6.00;4.37;;;;;;;16.17;100.00;97909.97;18569913;32;20048;-55
2023/09/08 04:07:13;;;;;;;4.62;3.90;;;;;;;16.14;100.00;97916.84;18555343;32;20120;-56
2023/09/08 04:17:15;;;;;;;5.72;4.32;;;;;;;16.05;100.00;97922.19;18569424;32;20049;-56
2023/09/08 04:27:18;;;;;;;5.32;4.40;;;;;;;16.03;100.00;97924.41;18568311;32;20095;-56
2023/09/08 04:37:21;;;;;;;7.55;3.92;;;;;;;16.09;100.00;97930.59;18567086;32;20075;-56
2023/09/08 04:47:23;;;;;;;4.65;3.80;;;;;;;16.03;100.00;97929.88;18567086;31;20403;-56
2023/09/08 04:57:25;;;;;;;5.43;4.00;;;;;;;15.96;100.00;97934.09;18566435;32;20089;-56
2023/09/08 05:07:28;;;;;;;6.85;3.55;;;;;;;15.86;100.00;97943.25;18565653;32;20049;-55
2023/09/08 05:17:30;;;;;;;6.80;4.12;;;;;;;15.82;100.00;97944.94;18565156;32;20059;-56
2023/09/08 05:27:33;;;;;;;7.43;4.15;;;;;;;15.78;100.00;97946.62;18564635;32;20087;-55
2023/09/08 05:37:35;;;;;;;5.37;4.43;;;;;;;15.75;100.00;97948.81;18563677;32;20098;-55
2023/09/08 05:47:38;;;;;;;5.37;4.78;;;;;;;15.81;100.00;97957.75;18548650;32;20052;-56
2023/09/08 05:57:41;;;;;;;5.37;4.43;;;;;;;15.96;100.00;97973.06;18563084;32;20060;-56
2023/09/08 06:07:43;;;;;;;6.50;4.55;;;;;;;16.15;100.00;97978.47;18562130;32;20470;-56
2023/09/08 06:18:02;;;;;;;6.78;5.25;;;;;;;16.42;100.00;97960.56;18561867;32;20076;-55
2023/09/08 06:28:05;;;;;;;4.93;4.53;;;;;;;16.69;100.00;97976.16;18561269;32;20056;-55
2023/09/08 06:38:08;;;;;;;6.90;4.60;;;;;;;17.04;100.00;97982.03;18560571;32;20048;-54
2023/09/08 06:48:10;;;;;;;5.03;4.28;;;;;;;17.43;100.00;97985.31;18560359;32;20088;-54
2023/09/08 06:58:14;;;;;;;4.47;3.80;;;;;;;17.83;100.00;97992.88;18569566;32;20057;-55
2023/09/08 07:08:18;;;;;;;4.07;3.47;;;;;;;18.22;100.00;97997.72;18559317;32;20101;-55
2023/09/08 07:18:20;;;;;;;4.37;3.72;;;;;;;18.59;100.00;97995.66;18572600;32;20048;-55
2023/09/08 07:28:23;;;;;;;3.50;2.70;;;;;;;19.01;100.00;98000.03;18557912;32;20075;-56
2023/09/08 07:38:26;;;;;;;4.27;3.37;;;;;;;19.43;100.00;97998.56;18570712;32;20048;-56
2023/09/08 07:48:29;;;;;;;3.08;2.75;;;;;;;19.85;100.00;98011.84;18570612;32;20053;-56
2023/09/08 07:58:32;;;;;;;4.60;4.18;;;;;;;20.23;100.00;98011.16;18570115;32;20153;-55
2023/09/08 08:08:38;;;;;;;4.75;4.22;;;;;;;20.71;100.00;98017.53;18568665;32;20061;-56
2023/09/08 08:18:41;;;;;;;5.40;4.18;;;;;;;21.19;100.00;98001.81;18568856;32;20364;-57
2023/09/08 08:28:44;;;;;;;4.80;4.35;;;;;;;21.63;100.00;98016.12;18568060;31;20060;-57
2023/09/08 08:38:47;;;;;;;6.00;4.85;;;;;;;22.06;100.00;98010.59;18567529;32;20049;-57
2023/09/08 08:48:54;;;;;;;5.72;4.90;;;;;;;22.44;100.00;98012.37;18567181;32;20101;-56
2023/09/08 08:58:58;;;;;;;5.87;4.45;;;;;;;22.89;100.00;98024.53;18552350;32;20115;-57
2023/09/08 09:09:05;;;;;;;5.37;4.87;;;;;;;23.30;100.00;98018.00;18565965;32;20384;-57
2023/09/08 09:19:08;;;;;;;5.80;5.20;;;;;;;23.69;100.00;98007.38;18564999;32;20112;-57
2023/09/08 09:29:14;;;;;;;6.85;5.70;;;;;;;24.06;100.00;98009.22;18564506;32;20061;-57
2023/09/08 09:39:19;;;;;;;5.93;5.32;;;;;;;24.37;100.00;98003.00;18563656;32;20045;-57
2023/09/08 09:49:31;;;;;;;5.72;5.15;;;;;;;24.77;100.00;97997.72;18563263;32;20048;-57
2023/09/08 09:59:35;;;;;;;6.78;6.18;;;;;;;25.13;100.00;97996.66;18562895;32;20053;-57
2023/09/08 10:09:38;;;;;;;7.15;6.45;;;;;;;25.50;100.00;97989.97;18562233;32;20373;-57
2023/09/08 10:19:43;;;;;;;6.80;5.93;;;;;;;25.77;100.00;97987.41;18561358;32;20067;-57
2023/09/08 10:29:50;;;;;;;7.57;6.53;;;;;;;26.00;100.00;97971.66;18561208;32;20079;-57
2023/09/08 10:39:54;;;;;;;7.10;6.40;;;;;;;26.33;100.00;97969.53;18560459;32;20076;-57
2023/09/08 10:49:58;;;;;;;6.85;6.15;;;;;;;26.68;100.00;97954.69;18560362;32;20057;-57
2023/09/08 11:00:12;;;;;;;6.57;5.97;;;;;;;27.02;100.00;97955.66;18560127;32;20070;-58
2023/09/08 11:10:15;;;;;;;5.87;5.28;;;;;;;27.31;100.00;97953.34;18560176;32;20083;-57
2023/09/08 11:20:27;;;;;;;5.70;5.18;;;;;;;27.59;100.00;97957.69;18560074;32;20386;-57
2023/09/08 11:30:30;;;;;;;5.30;4.80;;;;;;;27.86;100.00;97955.66;18559491;32;20429;-57
2023/09/08 11:40:34;;;;;;;6.90;5.32;;;;;;;28.15;100.00;97955.19;18547235;32;20079;-57
2023/09/08 11:50:37;;;;;;;6.15;5.25;;;;;;;28.47;100.00;97951.97;18556200;32;20060;-58
2023/09/08 12:00:43;;;;;;;6.62;4.95;;;;;;;28.74;99.69;97959.00;18569952;32;20432;-58
2023/09/08 12:10:46;;;;;;;6.10;4.55;;;;;;;29.08;98.83;97947.72;18555053;31;20387;-58
2023/09/08 12:21:08;;;;;;;5.87;4.70;;;;;;;29.58;100.00;97938.09;18568701;32;20053;-57
2023/09/08 12:31:12;;;;;;;5.93;4.87;;;;;;;29.98;88.68;97927.91;18554045;32;20357;-58
2023/09/08 12:41:16;;;;;;;5.70;5.20;;;;;;;30.12;85.14;97923.56;18567161;32;20353;-57
2023/09/08 12:51:19;;;;;;;5.15;4.65;;;;;;;30.49;78.53;97926.06;18566881;32;20061;-57
2023/09/08 13:01:22;;;;;;;5.03;4.28;;;;;;;30.90;77.60;97919.28;18566597;32;20075;-58
2023/09/08 13:11:25;;;;;;;4.62;4.00;;;;;;;31.34;67.53;97906.88;18538645;32;20489;-58
2023/09/08 13:21:30;;;;;;;5.05;3.85;;;;;;;31.59;74.21;97894.81;18565707;32;20052;-58
2023/09/08 13:31:33;;;;;;;5.25;3.83;;;;;;;31.86;53.64;97888.69;18564643;32;20061;-58
2023/09/08 13:41:55;;;;;;;4.72;3.65;;;;;;;31.94;54.29;97887.44;18563608;32;20115;-58
2023/09/08 13:52:01;;;;;;;6.40;3.80;;;;;;;32.31;51.38;97888.84;18563484;32;20115;-58
2023/09/08 14:02:07;;;;;;;4.03;3.40;;;;;;;32.58;60.71;97877.81;18561987;32;20126;-58
2023/09/08 14:12:13;;;;;;;4.72;4.25;;;;;;;32.74;52.29;97876.50;18562260;32;20112;-58
2023/09/08 14:22:20;;;;;;;8.10;3.30;;;;;;;32.39;54.41;97867.19;18561543;32;20053;-58
2023/09/08 14:32:23;;;;;;;5.03;3.58;;;;;;;31.65;49.46;97856.84;18561332;32;20084;-57
2023/09/08 14:42:27;;;;;;;4.55;3.87;;;;;;;31.19;47.09;97853.03;18560587;32;20045;-57
2023/09/08 14:52:31;;;;;;;4.22;3.80;;;;;;;31.00;52.97;97843.09;18560542;32;20053;-58
2023/09/08 15:02:36;;;;;;;4.93;4.32;;;;;;;30.45;57.14;97827.63;18560039;32;20045;-58
2023/09/08 15:12:39;;;;;;;5.80;4.68;;;;;;;30.05;54.06;97830.38;18560904;32;20052;-58
2023/09/08 15:22:42;;;;;;;8.52;4.53;;;;;;;29.87;55.71;97830.31;18572564;32;20401;-58
2023/09/08 15:32:45;;;;;;;4.85;4.18;;;;;;;29.62;56.35;97818.31;18571909;32;20053;-57
2023/09/08 15:42:51;;;;;;;6.35;5.12;;;;;;;29.36;57.54;97811.84;18556954;32;20049;-57
2023/09/08 15:52:55;;;;;;;4.78;4.32;;;;;;;28.98;62.87;97814.81;18570898;32;20065;-57
2023/09/08 16:02:59;;;;;;;6.87;4.20;;;;;;;28.53;75.10;97811.34;18569824;32;20387;-55
2023/09/08 16:13:02;;;;;;;8.35;4.32;;;;;;;28.32;72.49;97796.09;18569555;32;20075;-57
2023/09/08 16:23:06;;;;;;;6.68;4.62;;;;;;;28.15;82.45;97796.75;18568679;32;20056;-57
2023/09/08 16:33:09;;;;;;;5.85;4.20;;;;;;;27.75;81.01;97796.38;18553992;32;20112;-57
2023/09/08 16:43:12;;;;;;;4.87;4.18;;;;;;;27.31;97.48;97789.53;18552928;32;20071;-57
2023/09/08 16:53:15;;;;;;;6.03;4.47;;;;;;;26.87;100.00;97792.91;18552761;32;20056;-57
2023/09/08 17:03:18;;;;;;;5.30;3.97;;;;;;;26.42;100.00;97789.06;18566213;32;20112;-57
2023/09/08 17:13:23;;;;;;;9.18;4.60;;;;;;;26.00;100.00;97788.00;18565550;32;20053;-56
2023/09/08 17:23:26;;;;;;;6.70;4.70;;;;;;;25.63;100.00;97788.53;18550772;32;20092;-57
2023/09/08 17:33:29;;;;;;;4.62;4.12;;;;;;;25.21;100.00;97787.28;18550087;32;20128;-57
2023/09/08 17:43:32;;;;;;;4.93;3.85;;;;;;;24.82;100.00;97790.84;18562547;32;20068;-56
2023/09/08 17:53:36;;;;;;;5.53;4.78;;;;;;;24.43;100.00;97795.44;18563319;32;20109;-57
2023/09/08 18:03:40;;;;;;;5.93;4.62;;;;;;;24.05;100.00;97803.25;18562580;32;20061;-57
2023/09/08 18:13:44;;;;;;;6.22;5.53;;;;;;;23.71;100.00;97805.50;18562241;32;20105;-57
2023/09/08 18:23:47;;;;;;;7.55;6.15;;;;;;;23.34;100.00;97808.44;18561546;32;20110;-56
2023/09/08 18:33:51;;;;;;;8.02;5.43;;;;;;;23.00;100.00;97816.09;18547398;32;20048;-58
2023/09/08 18:43:54;;;;;;;5.65;4.72;;;;;;;22.68;100.00;97822.25;18494541;32;20109;-57
2023/09/08 18:53:57;;;;;;;6.60;5.07;;;;;;;22.40;100.00;97830.41;18494165;32;20083;-57
2023/09/08 19:04:01;;;;;;;6.03;5.40;;;;;;;22.14;100.00;97836.22;18495704;32;20069;-57
2023/09/08 19:14:04;;;;;;;;;;;;;;;21.92;100.00;97834.69;18494124;32;20097;-57
2023/09/08 19:24:07;;;;;;;6.33;5.10;;;;;;;21.69;100.00;97837.03;18493769;32;19959;-57
2023/09/08 19:34:09;;;;;;;6.68;4.87;;;;;;;21.50;100.00;97849.31;18494452;32;20049;-56
2023/09/08 19:44:12;;;;;;;8.63;5.70;;;;;;;21.33;100.00;97847.53;18550812;31;20091;-56
2023/09/08 19:54:15;;;;;;;6.00;5.40;;;;;;;21.15;100.00;97846.88;18558602;32;20064;-56
2023/09/08 20:04:17;;;;;;;7.23;5.83;;;;;;;20.98;100.00;97847.81;18563849;32;20056;-56
2023/09/08 20:14:20;;;;;;;7.53;5.67;;;;;;;20.81;100.00;97854.22;18569590;32;20144;-56
2023/09/08 20:24:22;;;;;;;7.25;5.18;;;;;;;20.68;100.00;97847.00;18555102;32;20436;-56
2023/09/08 20:34:25;;;;;;;5.60;4.77;;;;;;;20.53;100.00;97849.19;18554129;32;20420;-56
2023/09/08 20:44:29;;;;;;;6.93;5.43;;;;;;;20.38;100.00;97838.75;18501233;32;20452;-56
2023/09/08 20:54:33;;;;;;;18.17;12.02;;;;;;;20.26;100.00;97845.75;18502149;32;20433;-56
2023/09/08 21:04:35;;;;;;;20.23;15.77;;;;;;;20.14;100.00;97848.38;18501369;32;20440;-56
2023/09/08 21:14:38;;;;;;;15.60;11.80;;;;;;;19.96;100.00;97856.69;18500546;32;20072;-56
2023/09/08 21:24:41;;;;;;;7.82;7.03;;;;;;;19.80;100.00;97859.16;18500314;32;20104;-56
2023/09/08 21:34:43;;;;;;;8.88;6.35;;;;;;;19.69;100.00;97849.59;18499732;32;20096;-56
2023/09/08 21:44:46;;;;;;;9.07;7.17;;;;;;;19.58;100.00;97846.44;18497418;32;20065;-56
2023/09/08 21:54:48;;;;;;;8.47;5.87;;;;;;;19.45;100.00;97841.91;18498485;32;20053;-56
2023/09/08 22:04:51;;;;;;;7.33;5.03;;;;;;;19.33;100.00;97847.25;18497755;32;20061;-56
2023/09/08 22:14:54;;;;;;;6.40;5.07;;;;;;;19.20;100.00;97844.34;18497392;32;20373;-56
2023/09/08 22:24:56;;;;;;;6.87;4.93;;;;;;;19.10;100.00;97839.19;18496231;32;20445;-57
2023/09/08 22:34:59;;;;;;;6.60;4.67;;;;;;;19.00;100.00;97834.03;18496442;32;20067;-56
2023/09/08 22:45:01;;;;;;;5.70;5.20;;;;;;;18.88;100.00;97831.91;18557928;32;20096;-56
2023/09/08 22:55:05;;;;;;;;;;;;;;;18.78;100.00;97833.00;18560775;32;20099;-57
2023/09/08 23:05:26;;;;;;;10.38;5.15;;;;;;;18.67;100.00;97834.44;18560896;32;19949;-57
2023/09/08 23:15:29;;;;;;;7.22;5.60;;;;;;;18.53;100.00;97837.31;18560120;32;20075;-57
2023/09/08 23:25:31;;;;;;;10.23;5.10;;;;;;;18.44;100.00;97834.53;18559526;32;20120;-56
2023/09/08 23:35:33;;;;;;;7.30;5.63;;;;;;;18.36;100.00;97830.63;18560525;31;20116;-56
2023/09/08 23:45:36;;;;;;;15.18;10.98;;;;;;;18.22;100.00;97829.94;18557523;32;20052;-57
2023/09/08 23:55:39;;;;;;;14.93;9.80;;;;;;;18.14;100.00;97836.19;18556311;32;20061;-56
